Time;durP1;ratioP1;P1;durP2;ratioP2;P2;SDS_P1;SDS_P2;PMS_P1;PMS_P2;Temp;Humidity;BMP_temperature;BMP_pressure;BME280_temperature;BME280_humidity;BME280_pressure;Samples;Min_cycle;Max_cycle;Signal;HPM_P1;HPM_P2
2023/07/01 00:00:49;;;;;;;4.43;2.33;;;;;;;22.86;47.91;98377.56;5030998;28;20029;-75
2023/07/01 00:03:15;;;;;;;3.92;2.47;;;;;;;22.86;47.89;98376.75;5031802;28;20095;-74
2023/07/01 00:05:40;;;;;;;2.92;2.22;;;;;;;22.85;47.86;98375.13;5014069;28;20048;-75
2023/07/01 00:08:06;;;;;;;5.05;2.38;;;;;;;22.86;48.10;98374.91;5015110;28;20107;-75
2023/07/01 00:10:31;;;;;;;5.40;2.30;;;;;;;22.82;48.01;98371.03;5031941;28;20065;-74
2023/07/01 00:12:57;;;;;;;5.38;2.25;;;;;;;22.81;47.88;98384.56;5014455;28;20025;-75
2023/07/01 00:15:22;;;;;;;4.93;2.28;;;;;;;22.75;47.89;98375.53;5032055;28;20481;-77
2023/07/01 00:17:48;;;;;;;3.90;2.47;;;;;;;22.73;48.10;98381.06;5030612;28;20037;-75
2023/07/01 00:20:13;;;;;;;2.60;2.20;;;;;;;22.65;48.40;98375.94;5030735;28;20065;-75
2023/07/01 00:22:39;;;;;;;2.67;1.92;;;;;;;22.64;48.72;98387.59;5014270;28;20029;-74
2023/07/01 00:25:05;;;;;;;3.25;2.10;;;;;;;22.64;48.38;98378.81;5014192;28;20068;-75
2023/07/01 00:27:30;;;;;;;2.95;2.40;;;;;;;22.62;48.32;98375.53;5014397;28;20021;-75
2023/07/01 00:29:55;;;;;;;3.38;2.10;;;;;;;22.61;48.54;98371.22;5031854;28;20068;-75
2023/07/01 00:32:21;;;;;;;2.55;2.10;;;;;;;22.56;48.45;98370.00;5030834;28;20473;-75
2023/07/01 00:34:46;;;;;;;3.03;2.33;;;;;;;22.52;48.64;98366.13;4997738;28;20041;-75
2023/07/01 00:37:12;;;;;;;2.83;2.00;;;;;;;22.45;48.59;98364.47;5030759;28;20100;-75
2023/07/01 00:39:37;;;;;;;2.70;2.03;;;;;;;22.42;48.76;98364.88;5030944;28;20120;-75
2023/07/01 00:42:03;;;;;;;3.72;2.50;;;;;;;22.49;48.67;98366.53;5014113;28;20095;-75
2023/07/01 00:44:29;;;;;;;3.28;1.95;;;;;;;22.50;48.49;98370.81;5031639;28;20034;-75
2023/07/01 00:46:54;;;;;;;2.45;2.15;;;;;;;22.48;48.79;98361.41;5014306;28;20041;-75
2023/07/01 00:49:20;;;;;;;3.22;2.30;;;;;;;22.45;48.79;98367.13;5030738;28;20030;-75
2023/07/01 00:51:45;;;;;;;3.28;2.28;;;;;;;22.40;48.82;98365.06;5030489;28;20046;-75
2023/07/01 00:54:10;;;;;;;4.22;2.25;;;;;;;22.31;49.03;98359.16;5014103;28;20037;-75
2023/07/01 00:56:36;;;;;;;3.50;2.03;;;;;;;22.33;48.93;98362.41;5014158;28;20037;-75
2023/07/01 00:59:02;;;;;;;3.55;2.15;;;;;;;22.33;49.18;98357.09;5014045;28;20041;-75
2023/07/01 01:01:34;;;;;;;3.50;2.47;;;;;;;22.32;48.83;98352.78;5015807;28;20029;-75
2023/07/01 01:04:11;;;;;;;2.30;2.10;;;;;;;22.34;49.01;98357.91;5017485;28;20032;-75
2023/07/01 01:07:02;;;;;;;5.57;3.72;;;;;;;22.28;48.70;98353.34;5018222;28;20068;-75
2023/07/01 01:09:42;;;;;;;11.20;7.13;;;;;;;22.29;49.11;98350.50;5033872;28;20033;-75
2023/07/01 01:12:09;;;;;;;26.70;17.85;;;;;;;22.30;49.26;98349.50;5034167;28;20155;-75
2023/07/01 01:14:35;;;;;;;28.73;18.83;;;;;;;22.31;48.79;98345.00;5035311;28;20112;-75
2023/07/01 01:17:04;;;;;;;17.92;11.32;;;;;;;22.21;48.87;98335.56;5017506;28;20048;-72
2023/07/01 01:19:45;;;;;;;16.63;8.90;;;;;;;22.25;49.19;98343.97;5018184;28;20056;-78
2023/07/01 01:22:19;;;;;;;14.93;9.52;;;;;;;22.27;48.85;98346.41;5001009;28;20032;-78
2023/07/01 01:24:48;;;;;;;13.45;8.88;;;;;;;22.23;48.82;98341.50;5034707;28;20477;-77
2023/07/01 01:27:16;;;;;;;11.82;7.40;;;;;;;22.29;49.20;98339.84;5033747;28;20033;-78
2023/07/01 01:29:42;;;;;;;8.90;5.25;;;;;;;22.28;48.92;98340.91;5001149;28;20062;-77
2023/07/01 01:32:08;;;;;;;6.85;4.15;;;;;;;22.26;49.18;98347.44;5016976;28;20132;-77
2023/07/01 01:34:34;;;;;;;5.10;3.60;;;;;;;22.19;49.19;98337.59;5000707;28;20036;-78
2023/07/01 01:37:01;;;;;;;6.63;3.47;;;;;;;22.21;49.12;98348.84;5016834;28;20025;-77
2023/07/01 01:39:28;;;;;;;4.75;3.00;;;;;;;22.13;48.92;98348.22;5017223;28;20048;-77
2023/07/01 01:42:00;;;;;;;5.30;2.75;;;;;;;22.09;48.85;98350.47;5017517;28;20040;-76
2023/07/01 01:44:30;;;;;;;4.05;2.70;;;;;;;22.10;49.08;98348.63;5000799;28;20056;-77
2023/07/01 01:46:56;;;;;;;3.50;2.40;;;;;;;22.10;49.29;98348.63;5033031;28;20033;-79
2023/07/01 01:49:21;;;;;;;4.45;2.50;;;;;;;22.10;49.41;98348.63;5016683;28;20037;-76
2023/07/01 01:51:47;;;;;;;3.75;2.08;;;;;;;22.04;49.42;98339.59;5000341;28;20045;-77
2023/07/01 01:54:12;;;;;;;3.08;2.20;;;;;;;22.01;49.54;98338.19;5016655;28;20115;-77
2023/07/01 01:56:38;;;;;;;4.10;2.10;;;;;;;22.03;49.50;98345.97;5016662;28;20084;-77
2023/07/01 01:59:03;;;;;;;4.38;2.10;;;;;;;22.00;49.33;98349.81;5033284;28;20401;-77
2023/07/01 02:01:29;;;;;;;2.72;2.10;;;;;;;21.96;49.62;98348.56;5016618;28;20029;-77
2023/07/01 02:03:55;;;;;;;6.00;2.30;;;;;;;21.96;49.63;98351.22;5016945;28;20049;-78
2023/07/01 02:06:20;;;;;;;3.63;1.90;;;;;;;21.97;49.42;98344.91;5016995;28;20025;-77
2023/07/01 02:08:46;;;;;;;2.53;1.98;;;;;;;21.98;49.58;98343.91;5032722;28;20488;-77
2023/07/01 02:11:11;;;;;;;17.92;2.30;;;;;;;22.07;49.68;98341.06;5015950;28;20029;-78
2023/07/01 02:13:37;;;;;;;24.88;2.60;;;;;;;22.31;49.74;98334.38;5033853;28;20057;-76
2023/07/01 02:16:02;;;;;;;15.32;3.20;;;;;;;22.49;49.68;98339.94;4999959;28;20095;-77
2023/07/01 02:18:28;;;;;;;15.90;2.58;;;;;;;22.45;49.36;98343.19;5016082;28;20128;-81
2023/07/01 02:20:53;;;;;;;9.90;2.20;;;;;;;22.36;49.19;98338.06;5034314;28;20026;-81
2023/07/01 02:23:19;;;;;;;5.80;2.20;;;;;;;22.31;49.45;98351.16;5016402;28;20514;-75
2023/07/01 02:25:45;;;;;;;8.10;2.10;;;;;;;22.25;49.40;98351.09;5033790;28;20025;-76
2023/07/01 02:28:10;;;;;;;4.10;1.85;;;;;;;22.12;49.51;98347.38;5000031;28;20087;-81
2023/07/01 02:30:36;;;;;;;3.38;1.90;;;;;;;22.11;49.51;98352.94;5015793;28;20053;-75
2023/07/01 02:33:02;;;;;;;3.83;1.90;;;;;;;22.04;49.35;98352.91;5033486;28;20404;-77
2023/07/01 02:35:27;;;;;;;2.67;1.90;;;;;;;22.03;49.57;98360.06;5016152;28;20048;-82
2023/07/01 02:37:53;;;;;;;2.75;1.98;;;;;;;22.01;49.50;98356.78;5026860;28;20029;-83
2023/07/01 02:40:18;;;;;;;8.65;2.00;;;;;;;21.95;49.74;98357.59;5032136;28;20512;-84
2023/07/01 02:42:44;;;;;;;5.53;2.20;;;;;;;21.93;49.67;98356.94;5047866;28;20112;-83
2023/07/01 02:45:10;;;;;;;3.33;2.13;;;;;;;21.92;49.86;98360.63;5031289;28;20052;-78
2023/07/01 02:47:35;;;;;;;3.15;2.08;;;;;;;21.95;50.13;98364.72;5031398;28;20034;-78
2023/07/01 02:50:01;;;;;;;3.42;2.25;;;;;;;21.93;50.05;98364.91;5031318;28;20037;-79
2023/07/01 02:52:26;;;;;;;3.00;2.05;;;;;;;21.93;50.15;98364.09;5014760;28;20416;-77
2023/07/01 02:54:52;;;;;;;4.72;2.28;;;;;;;21.93;49.72;98364.09;5031367;28;20415;-76
2023/07/01 02:57:17;;;;;;;5.57;2.20;;;;;;;21.95;49.92;98367.38;5032482;28;20021;-76
2023/07/01 02:59:43;;;;;;;5.53;2.20;;;;;;;21.97;49.81;98366.16;5032144;28;20036;-76
2023/07/01 03:02:09;;;;;;;3.80;2.10;;;;;;;22.15;49.29;98367.44;5030853;28;20553;-77
2023/07/01 03:04:35;;;;;;;3.05;2.10;;;;;;;22.32;49.01;98362.59;5031123;28;20128;-76
2023/07/01 03:07:00;;;;;;;5.22;2.00;;;;;;;22.72;47.96;98366.13;5031103;28;20033;-77
2023/07/01 03:09:26;;;;;;;2.80;1.98;;;;;;;23.11;46.99;98369.81;5030430;28;20134;-77
2023/07/01 03:11:52;;;;;;;2.63;1.80;;;;;;;23.51;46.05;98370.75;5031259;28;20045;-78
2023/07/01 03:14:18;;;;;;;2.90;2.10;;;;;;;23.92;45.33;98356.28;5047504;28;20148;-77
2023/07/01 03:16:44;;;;;;;2.60;1.70;;;;;;;24.32;44.42;98356.03;5030782;28;20025;-78
2023/07/01 03:19:10;;;;;;;4.20;1.90;;;;;;;24.73;43.46;98360.91;5031765;28;20117;-81
2023/07/01 03:21:36;;;;;;;5.13;1.90;;;;;;;25.18;42.36;98362.56;5014275;28;20131;-81
2023/07/01 03:24:02;;;;;;;2.72;1.60;;;;;;;25.66;41.45;98361.03;5030313;28;20408;-81
2023/07/01 03:26:27;;;;;;;2.58;1.60;;;;;;;26.08;40.13;98355.00;5030805;28;20029;-81
2023/07/01 03:28:56;;;;;;;8.93;5.38;;;;;;;26.52;39.36;98359.06;5030586;28;20057;-81
2023/07/01 03:31:21;;;;;;;29.30;19.83;;;;;;;26.95;38.36;98365.19;5030823;28;20033;-81
2023/07/01 03:33:47;;;;;;;18.10;13.65;;;;;;;27.37;37.85;98362.41;5014369;28;20037;-82
2023/07/01 03:36:12;;;;;;;17.85;11.20;;;;;;;27.83;36.93;98364.38;5049751;28;20021;-81
2023/07/01 03:38:38;;;;;;;18.23;13.55;;;;;;;28.21;36.34;98355.75;5033934;28;20064;-81
2023/07/01 03:41:06;;;;;;;12.95;9.77;;;;;;;28.59;35.60;98351.59;5050710;28;20025;-80
2023/07/01 03:43:32;;;;;;;10.27;7.90;;;;;;;29.05;34.77;98354.19;5050194;28;20146;-80
2023/07/01 03:45:57;;;;;;;8.93;6.47;;;;;;;29.42;34.26;98353.63;5050276;28;20029;-80
2023/07/01 03:48:23;;;;;;;6.10;4.80;;;;;;;29.82;33.77;98352.50;5050886;28;20546;-81
2023/07/01 03:50:48;;;;;;;5.13;3.72;;;;;;;30.22;32.56;98356.69;5049665;28;20041;-79
2023/07/01 03:53:14;;;;;;;4.40;3.38;;;;;;;30.62;32.04;98357.34;5033580;28;20127;-81
2023/07/01 03:55:39;;;;;;;5.13;3.80;;;;;;;30.98;31.75;98353.06;5050263;28;20032;-78
2023/07/01 03:58:05;;;;;;;4.72;3.25;;;;;;;31.40;31.24;98364.88;5033750;28;20506;-76
2023/07/01 04:00:30;;;;;;;4.95;3.20;;;;;;;31.82;30.50;98363.16;5050039;28;20044;-76
2023/07/01 04:03:02;;;;;;;3.42;2.50;;;;;;;32.21;29.63;98368.16;5033179;28;20051;-76
2023/07/01 04:05:27;;;;;;;5.78;2.30;;;;;;;32.63;29.31;98367.09;5049831;28;20057;-75
2023/07/01 04:07:53;;;;;;;8.63;2.53;;;;;;;33.04;28.76;98358.19;5049846;28;20067;-75
2023/07/01 04:10:19;;;;;;;2.67;1.95;;;;;;;33.48;28.35;98374.56;5026063;28;20064;-77
2023/07/01 04:12:44;;;;;;;4.63;3.67;;;;;;;33.86;27.48;98371.47;5018864;28;20477;-76
2023/07/01 04:15:10;;;;;;;27.02;21.20;;;;;;;34.27;27.02;98384.81;5031068;28;20032;-76
2023/07/01 04:17:37;;;;;;;17.13;12.80;;;;;;;34.63;26.49;98370.97;5029310;28;20061;-75
2023/07/01 04:20:04;;;;;;;14.23;9.27;;;;;;;35.05;25.76;98366.00;5032567;28;20039;-75
2023/07/01 04:22:30;;;;;;;15.32;8.13;;;;;;;35.49;24.92;98368.50;5049688;28;20029;-75
2023/07/01 04:24:55;;;;;;;11.32;6.50;;;;;;;35.92;24.55;98366.94;5049755;28;20096;-75
2023/07/01 04:27:20;;;;;;;10.98;5.60;;;;;;;36.35;24.16;98369.56;5049572;28;20029;-76
2023/07/01 04:29:46;;;;;;;9.80;5.57;;;;;;;36.71;23.62;98358.91;5048494;28;20049;-77
2023/07/01 04:32:11;;;;;;;10.55;6.32;;;;;;;37.11;23.51;98361.22;5049767;28;20033;-78
2023/07/01 04:34:37;;;;;;;9.68;5.63;;;;;;;37.48;23.19;98357.53;5033533;28;20036;-76
2023/07/01 04:37:02;;;;;;;8.85;5.00;;;;;;;37.89;22.53;98360.50;5052972;28;20029;-76
2023/07/01 04:39:28;;;;;;;6.30;4.20;;;;;;;38.25;22.43;98359.72;5036377;28;20468;-75
2023/07/01 04:41:53;;;;;;;3.90;3.20;;;;;;;38.66;21.83;98362.25;5044964;28;20036;-75
2023/07/01 04:44:19;;;;;;;5.45;3.50;;;;;;;38.96;21.52;98357.13;5029727;28;20033;-74
2023/07/01 04:46:44;;;;;;;3.63;2.30;;;;;;;39.31;21.22;98354.56;5053956;28;20495;-73
2023/07/01 04:49:10;;;;;;;3.65;2.20;;;;;;;39.69;20.52;98359.47;5038063;28;20029;-74
2023/07/01 04:51:39;;;;;;;6.90;2.10;;;;;;;40.04;19.85;98348.59;5051119;28;20033;-72
2023/07/01 04:54:04;;;;;;;4.45;2.00;;;;;;;40.39;19.32;98354.06;5036908;28;20033;-73
2023/07/01 04:56:31;;;;;;;6.82;1.90;;;;;;;40.72;18.55;98355.47;5052772;28;20476;-74
2023/07/01 04:58:56;;;;;;;4.50;2.80;;;;;;;41.01;18.66;98360.25;5053228;28;20033;-75
2023/07/01 05:01:22;;;;;;;5.43;3.55;;;;;;;41.32;18.10;98356.41;5052835;28;20095;-77
2023/07/01 05:03:47;;;;;;;6.53;4.10;;;;;;;41.67;17.83;98357.03;5035936;28;20036;-74
2023/07/01 05:06:13;;;;;;;7.68;4.38;;;;;;;41.93;17.07;98351.34;5053693;28;20033;-74
2023/07/01 05:08:38;;;;;;;8.20;5.20;;;;;;;42.27;17.03;98351.41;5054195;28;20534;-74
2023/07/01 05:11:04;;;;;;;19.70;10.15;;;;;;;42.63;16.75;98349.97;5052345;28;20033;-75
2023/07/01 05:13:29;;;;;;;13.80;6.13;;;;;;;42.93;16.43;98350.56;5052522;28;20056;-73
2023/07/01 05:15:54;;;;;;;8.57;5.10;;;;;;;43.23;16.19;98349.59;5036382;28;20432;-73
2023/07/01 05:18:20;;;;;;;8.93;4.23;;;;;;;43.57;15.89;98345.59;5052111;28;20029;-73
2023/07/01 05:20:46;;;;;;;4.90;3.63;;;;;;;43.91;15.66;98359.94;5052522;28;20040;-74
2023/07/01 05:23:11;;;;;;;7.90;3.20;;;;;;;44.13;15.31;98355.88;5052737;28;20459;-74
2023/07/01 05:25:37;;;;;;;8.67;2.77;;;;;;;44.34;14.83;98366.69;5052267;28;20041;-75
2023/07/01 05:28:02;;;;;;;5.30;2.77;;;;;;;44.55;14.51;98373.91;5052137;28;20036;-74
2023/07/01 05:30:28;;;;;;;4.17;2.80;;;;;;;44.80;14.20;98366.34;5051744;28;20083;-74
2023/07/01 05:32:53;;;;;;;7.40;3.40;;;;;;;44.99;14.56;98371.16;5035579;28;20044;-74
2023/07/01 05:35:19;;;;;;;8.63;3.43;;;;;;;45.16;14.25;98368.03;5052309;28;20049;-74
2023/07/01 05:37:44;;;;;;;8.33;2.90;;;;;;;45.36;13.85;98370.88;5052149;28;20494;-73
2023/07/01 05:40:11;;;;;;;4.40;2.40;;;;;;;45.54;13.50;98367.75;5052353;28;20036;-76
2023/07/01 05:42:37;;;;;;;4.65;2.50;;;;;;;45.65;14.02;98366.81;5035700;28;20107;-74
2023/07/01 05:45:03;;;;;;;4.70;2.50;;;;;;;45.71;13.34;98363.81;5053509;28;20029;-74
2023/07/01 05:47:29;;;;;;;5.07;2.20;;;;;;;45.83;13.84;98361.75;5051126;28;20085;-75
2023/07/01 05:49:54;;;;;;;3.53;2.07;;;;;;;45.95;13.58;98355.28;5052933;28;20032;-75
2023/07/01 05:52:21;;;;;;;3.57;1.80;;;;;;;46.10;13.61;98364.66;5053441;28;20086;-74
2023/07/01 05:54:46;;;;;;;2.55;1.58;;;;;;;46.11;13.13;98360.72;5052901;28;20503;-74
2023/07/01 05:57:12;;;;;;;7.00;1.80;;;;;;;46.22;13.37;98361.75;5051786;28;20088;-74
2023/07/01 05:59:37;;;;;;;5.87;1.67;;;;;;;46.10;13.88;98358.31;5051585;28;20443;-74
2023/07/01 06:02:03;;;;;;;7.13;1.93;;;;;;;46.12;13.44;98359.56;5053438;28;20029;-75
2023/07/01 06:04:28;;;;;;;4.90;1.70;;;;;;;46.14;13.41;98353.69;5053244;28;20031;-74
2023/07/01 06:06:54;;;;;;;3.40;1.40;;;;;;;46.11;13.98;98357.16;5053146;28;20275;-74
2023/07/01 06:09:19;;;;;;;3.10;1.50;;;;;;;46.05;14.03;98351.13;5053317;28;20029;-76
2023/07/01 06:11:45;;;;;;;7.33;1.70;;;;;;;46.07;14.06;98351.59;5034559;28;20041;-74
2023/07/01 06:14:11;;;;;;;4.90;1.57;;;;;;;46.06;13.58;98355.50;5053148;28;20029;-72
2023/07/01 06:16:37;;;;;;;2.80;1.50;;;;;;;46.09;13.54;98352.00;5052770;28;20044;-71
2023/07/01 06:19:02;;;;;;;8.25;1.60;;;;;;;45.96;13.79;98356.06;5052903;28;20033;-71
2023/07/01 06:21:28;;;;;;;4.40;1.57;;;;;;;45.94;14.09;98361.94;5034843;28;20031;-72
2023/07/01 06:23:55;;;;;;;5.50;1.80;;;;;;;45.92;13.57;98349.69;5035641;28;20029;-72
2023/07/01 06:26:20;;;;;;;6.10;1.50;;;;;;;45.91;14.34;98362.69;5053736;28;20035;-72
2023/07/01 06:28:46;;;;;;;5.50;1.47;;;;;;;45.92;13.71;98361.50;5053464;28;20053;-74
2023/07/01 06:31:11;;;;;;;6.93;1.80;;;;;;;45.85;14.27;98353.91;5051651;28;20056;-72
2023/07/01 06:33:40;;;;;;;6.67;1.60;;;;;;;45.82;14.04;98360.13;5034084;28;20033;-72
2023/07/01 06:36:06;;;;;;;6.70;1.90;;;;;;;45.86;14.32;98361.03;5051291;28;20037;-73
2023/07/01 06:38:32;;;;;;;5.88;1.60;;;;;;;45.82;14.58;98354.63;5050865;28;20056;-71
2023/07/01 06:40:57;;;;;;;5.17;1.60;;;;;;;45.74;14.00;98355.59;5050954;28;20554;-72
2023/07/01 06:43:23;;;;;;;7.07;1.70;;;;;;;45.73;14.34;98359.50;5050470;28;20048;-72
2023/07/01 06:45:48;;;;;;;4.83;1.60;;;;;;;45.68;14.44;98351.53;5050918;28;20083;-72
2023/07/01 06:48:14;;;;;;;3.53;1.40;;;;;;;45.68;14.23;98357.03;5051115;28;20025;-72
2023/07/01 06:50:39;;;;;;;8.87;1.50;;;;;;;45.66;14.35;98362.13;5030576;28;20132;-72
2023/07/01 06:53:05;;;;;;;4.20;1.50;;;;;;;45.54;14.49;98359.50;5031639;28;20076;-70
2023/07/01 06:55:31;;;;;;;5.22;1.40;;;;;;;45.46;14.87;98362.06;5031972;28;20033;-71
2023/07/01 06:57:56;;;;;;;2.73;1.30;;;;;;;45.40;15.15;98359.97;5031290;28;20044;-72
2023/07/01 07:00:22;;;;;;;3.03;1.50;;;;;;;45.35;14.80;98366.50;5013975;28;20029;-72
2023/07/01 07:02:47;;;;;;;3.33;1.50;;;;;;;45.28;14.53;98371.88;5014259;28;20041;-72
2023/07/01 07:05:13;;;;;;;3.83;1.40;;;;;;;45.10;14.86;98374.97;5032084;28;20025;-72
2023/07/01 07:07:38;;;;;;;5.00;1.60;;;;;;;44.93;15.17;98367.88;5032080;28;20088;-72
2023/07/01 07:10:04;;;;;;;4.67;1.57;;;;;;;44.89;15.27;98374.44;5030373;28;20492;-71
2023/07/01 07:12:30;;;;;;;4.17;1.67;;;;;;;44.72;15.25;98370.84;5030890;28;20047;-73
2023/07/01 07:14:55;;;;;;;2.87;1.43;;;;;;;44.61;15.38;98362.34;5030499;28;20116;-72
2023/07/01 07:17:21;;;;;;;3.47;1.63;;;;;;;44.47;15.59;98367.41;5031906;28;20025;-73
2023/07/01 07:19:47;;;;;;;3.83;1.60;;;;;;;44.42;15.61;98368.50;4997249;28;20398;-73
2023/07/01 07:22:12;;;;;;;5.53;1.60;;;;;;;44.25;15.55;98364.09;5031558;28;20040;-72
2023/07/01 07:24:38;;;;;;;3.03;1.80;;;;;;;44.14;16.01;98362.97;5031653;28;20087;-73
2023/07/01 07:27:04;;;;;;;3.47;1.70;;;;;;;44.03;16.07;98362.66;5030147;28;20409;-74
2023/07/01 07:29:30;;;;;;;5.37;1.70;;;;;;;43.95;16.07;98365.56;5029483;28;20045;-71
2023/07/01 07:31:56;;;;;;;4.13;1.77;;;;;;;43.71;16.48;98368.00;5030230;28;20122;-74
2023/07/01 07:34:22;;;;;;;3.87;1.70;;;;;;;43.56;16.50;98371.47;5014195;28;20488;-81
2023/07/01 07:36:48;;;;;;;2.78;1.73;;;;;;;43.33;16.63;98369.16;5013886;28;20021;-80
2023/07/01 07:39:13;;;;;;;5.37;1.83;;;;;;;43.24;16.74;98362.16;5031678;28;20496;-82
2023/07/01 07:41:42;;;;;;;4.33;1.77;;;;;;;43.14;17.06;98363.44;4997361;28;20033;-77
2023/07/01 07:44:08;;;;;;;4.43;1.80;;;;;;;43.05;17.27;98360.81;5031573;28;20112;-75
2023/07/01 07:46:34;;;;;;;3.93;1.70;;;;;;;42.98;17.38;98366.84;5030262;28;20037;-76
2023/07/01 07:48:59;;;;;;;7.83;1.90;;;;;;;42.91;16.87;98357.56;5014104;28;20116;-77
2023/07/01 07:51:25;;;;;;;3.30;1.60;;;;;;;42.75;17.51;98358.22;5045176;28;20098;-76
2023/07/01 07:53:50;;;;;;;4.27;1.80;;;;;;;42.65;17.11;98356.72;5032892;28;20103;-73
2023/07/01 07:56:16;;;;;;;3.87;1.77;;;;;;;42.54;18.02;98351.97;5051472;28;20033;-76
2023/07/01 07:58:41;;;;;;;3.57;1.90;;;;;;;42.40;17.56;98352.25;5050154;28;20032;-75
2023/07/01 08:01:07;;;;;;;6.37;1.87;;;;;;;42.24;17.85;98354.84;5033593;28;20037;-74
2023/07/01 08:03:32;;;;;;;2.88;1.80;;;;;;;42.16;17.60;98348.28;5051230;28;20029;-75
2023/07/01 08:05:58;;;;;;;4.63;1.75;;;;;;;42.04;17.76;98354.50;5051315;28;20136;-75
2023/07/01 08:08:23;;;;;;;5.47;1.90;;;;;;;41.89;17.62;98353.19;5032697;28;20107;-74
2023/07/01 08:10:49;;;;;;;3.93;1.60;;;;;;;41.89;18.27;98341.41;5035937;28;20030;-75
2023/07/01 08:13:14;;;;;;;4.00;1.80;;;;;;;41.82;17.95;98339.19;5055458;28;20028;-75
2023/07/01 08:15:41;;;;;;;6.65;2.03;;;;;;;41.71;17.84;98336.06;5053714;28;20481;-74
2023/07/01 08:18:07;;;;;;;3.05;1.70;;;;;;;41.70;18.13;98347.31;5037550;28;20061;-74
2023/07/01 08:20:34;;;;;;;6.47;1.70;;;;;;;41.62;18.13;98340.75;5053799;28;20161;-77
2023/07/01 08:23:00;;;;;;;3.30;2.10;;;;;;;41.64;17.95;98348.63;5037539;28;20565;-75
2023/07/01 08:25:25;;;;;;;3.25;1.98;;;;;;;41.58;18.45;98337.09;5053494;28;20032;-74
2023/07/01 08:27:51;;;;;;;5.40;2.10;;;;;;;41.60;18.24;98343.03;5038211;28;20041;-74
2023/07/01 08:30:16;;;;;;;2.55;1.95;;;;;;;41.56;18.45;98342.09;5053512;28;20111;-73
2023/07/01 08:32:42;;;;;;;2.60;2.10;;;;;;;41.52;18.50;98339.22;5037305;28;20029;-74
2023/07/01 08:35:08;;;;;;;8.30;1.97;;;;;;;41.44;18.04;98340.06;5053736;28;20139;-74
2023/07/01 08:37:34;;;;;;;8.13;1.98;;;;;;;41.35;18.57;98326.41;5053136;28;20018;-73
2023/07/01 08:39:59;;;;;;;5.38;2.35;;;;;;;41.20;19.80;98327.78;5054872;28;20060;-74
2023/07/01 08:42:45;;;;;;;2.90;1.70;;;;;;;40.72;20.03;98328.13;5020543;28;20025;-73
2023/07/01 08:45:10;;;;;;;8.30;1.98;;;;;;;40.14;20.82;98315.50;5023382;28;20040;-73
2023/07/01 08:47:36;;;;;;;10.48;2.13;;;;;;;39.87;21.15;98327.53;5054176;28;20029;-72
2023/07/01 08:50:05;;;;;;;6.25;2.03;;;;;;;39.54;21.42;98324.47;5054029;28;20033;-72
2023/07/01 08:52:33;;;;;;;4.85;1.98;;;;;;;39.22;21.59;98316.31;5020010;28;20021;-73
2023/07/01 08:54:59;;;;;;;9.05;2.20;;;;;;;39.05;21.74;98317.03;5037160;28;20029;-74
2023/07/01 08:57:24;;;;;;;4.13;2.58;;;;;;;38.70;22.18;98314.16;5052873;28;20496;-72
2023/07/01 08:59:50;;;;;;;3.60;2.63;;;;;;;38.49;22.20;98313.03;5036805;28;20037;-73
2023/07/01 09:02:15;;;;;;;5.22;2.60;;;;;;;38.32;22.45;98317.28;5036355;28;20166;-73
2023/07/01 09:04:41;;;;;;;4.22;2.40;;;;;;;38.07;22.83;98309.72;5036425;28;20033;-72
2023/07/01 09:07:08;;;;;;;4.75;2.40;;;;;;;37.92;22.94;98305.41;5053066;28;20388;-72
2023/07/01 09:09:34;;;;;;;4.85;2.22;;;;;;;37.77;23.24;98307.38;5052786;28;20092;-72
2023/07/01 09:11:59;;;;;;;4.38;2.40;;;;;;;37.63;23.11;98309.31;5052760;28;20033;-72
2023/07/01 09:14:25;;;;;;;3.70;2.20;;;;;;;37.50;23.38;98308.22;5052684;28;20067;-72
2023/07/01 09:16:50;;;;;;;4.78;2.50;;;;;;;37.47;23.38;98300.66;5052831;28;20021;-71
2023/07/01 09:19:21;;;;;;;4.60;2.40;;;;;;;37.42;23.44;98308.94;5052542;28;20033;-72
2023/07/01 09:21:46;;;;;;;4.95;2.80;;;;;;;37.22;23.46;98302.00;5051825;28;20032;-72
2023/07/01 09:24:12;;;;;;;5.15;2.58;;;;;;;37.14;23.93;98291.81;5036099;28;20040;-71
2023/07/01 09:26:38;;;;;;;7.10;2.55;;;;;;;36.92;22.77;98288.66;5036355;28;20126;-71
2023/07/01 09:29:11;;;;;;;4.80;2.65;;;;;;;36.81;23.86;98298.13;5035488;28;20078;-72
2023/07/01 09:31:44;;;;;;;8.77;2.20;;;;;;;36.49;22.96;98293.53;5052669;28;20060;-73
2023/07/01 09:34:10;;;;;;;5.95;2.40;;;;;;;36.39;24.03;98280.94;5036134;28;20028;-73
2023/07/01 09:36:35;;;;;;;7.90;2.15;;;;;;;36.37;24.20;98283.13;5035694;28;20495;-73
2023/07/01 09:39:02;;;;;;;4.22;2.58;;;;;;;36.38;24.38;98279.31;5052086;28;20040;-72
2023/07/01 09:41:28;;;;;;;5.95;2.30;;;;;;;36.33;23.86;98282.91;5035837;28;20036;-72
2023/07/01 09:43:55;;;;;;;3.95;2.30;;;;;;;36.20;24.44;98276.31;5052390;28;20041;-71
2023/07/01 09:46:22;;;;;;;3.75;2.15;;;;;;;36.14;24.31;98279.41;5019025;28;20029;-71
2023/07/01 09:48:55;;;;;;;5.50;2.25;;;;;;;36.08;25.09;98281.38;5035711;28;20119;-71
2023/07/01 09:51:27;;;;;;;3.50;2.10;;;;;;;35.92;24.75;98272.69;5032013;28;20025;-71
2023/07/01 09:53:52;;;;;;;4.70;2.00;;;;;;;35.85;24.27;98264.91;5033308;28;20064;-71
2023/07/01 09:56:18;;;;;;;5.72;1.95;;;;;;;35.75;24.58;98275.91;5015848;28;20152;-71
2023/07/01 09:58:45;;;;;;;4.07;2.30;;;;;;;35.58;24.90;98272.88;5015543;28;20025;-71
2023/07/01 10:01:14;;;;;;;2.88;1.80;;;;;;;35.47;25.01;98272.19;5015292;28;20025;-74
2023/07/01 10:03:41;;;;;;;4.30;2.08;;;;;;;35.27;24.42;98270.59;5031906;28;20080;-71
2023/07/01 10:06:06;;;;;;;5.72;2.40;;;;;;;35.24;25.14;98255.66;5015576;28;20500;-71
2023/07/01 10:08:33;;;;;;;5.93;2.20;;;;;;;35.28;25.18;98266.75;5015676;28;20048;-71
2023/07/01 10:11:01;;;;;;;3.23;2.00;;;;;;;35.24;25.15;98265.72;5015262;28;20385;-72
2023/07/01 10:13:28;;;;;;;3.53;1.98;;;;;;;35.25;25.76;98270.88;5032656;28;20491;-70
2023/07/01 10:15:53;;;;;;;6.55;2.10;;;;;;;35.21;25.13;98266.28;5031815;28;20147;-70
2023/07/01 10:18:22;;;;;;;4.20;2.22;;;;;;;35.06;24.95;98265.38;5031983;28;20033;-72
2023/07/01 10:20:50;;;;;;;5.47;2.05;;;;;;;35.07;25.60;98256.13;5031544;28;20033;-72
2023/07/01 10:23:16;;;;;;;3.78;2.45;;;;;;;35.00;25.15;98252.97;5031691;28;20033;-71
2023/07/01 10:25:41;;;;;;;5.55;2.15;;;;;;;34.95;25.86;98253.84;5014718;28;20109;-70
2023/07/01 10:28:11;;;;;;;6.40;2.42;;;;;;;34.93;25.46;98249.78;5032645;28;20057;-71
2023/07/01 10:30:45;;;;;;;7.80;2.50;;;;;;;34.79;26.00;98244.25;4998960;28;20535;-70
2023/07/01 10:33:30;;;;;;;4.68;2.35;;;;;;;34.85;25.94;98250.44;5032566;28;20560;-71
2023/07/01 10:36:05;;;;;;;4.93;2.17;;;;;;;34.71;26.25;98240.25;5032386;28;20030;-73
2023/07/01 10:38:32;;;;;;;6.00;2.28;;;;;;;34.83;26.37;98236.38;5015158;28;20125;-74
2023/07/01 10:40:58;;;;;;;7.55;2.40;;;;;;;34.78;26.02;98224.47;5031741;28;20488;-76
2023/07/01 10:43:26;;;;;;;6.90;2.58;;;;;;;34.82;25.46;98215.75;5013944;28;20051;-76
2023/07/01 10:46:12;;;;;;;4.38;2.25;;;;;;;34.81;26.14;98217.69;5014790;28;20067;-74
2023/07/01 10:48:45;;;;;;;3.03;2.20;;;;;;;34.71;25.74;98217.75;5015810;28;20033;-74
2023/07/01 10:51:11;;;;;;;3.97;2.60;;;;;;;34.70;25.73;98225.09;4998105;28;20029;-75
2023/07/01 10:53:59;;;;;;;5.20;2.33;;;;;;;34.60;25.95;98211.63;5031068;28;20056;-75
2023/07/01 10:56:26;;;;;;;4.88;2.20;;;;;;;34.58;25.90;98203.78;5014285;28;20033;-74
2023/07/01 10:59:10;;;;;;;;;;;;;;;34.51;25.34;98200.63;5014633;28;20412;-75
2023/07/01 11:01:49;;;;;;;5.72;2.38;;;;;;;34.56;25.96;98200.56;5030771;28;19912;-76
2023/07/01 11:04:15;;;;;;;4.95;2.15;;;;;;;34.51;26.26;98192.50;5031309;28;20033;-74
2023/07/01 11:06:51;;;;;;;6.35;2.15;;;;;;;34.44;25.82;98189.31;4998100;28;20395;-75
2023/07/01 11:09:34;;;;;;;3.72;2.17;;;;;;;34.44;25.46;98183.91;5015789;28;20041;-75
2023/07/01 11:12:01;;;;;;;3.65;2.47;;;;;;;34.36;24.81;98179.09;5015754;28;20463;-74
2023/07/01 11:14:31;;;;;;;4.55;2.40;;;;;;;34.25;25.71;98179.22;5014395;28;20416;-74
2023/07/01 11:17:04;;;;;;;3.17;1.98;;;;;;;34.12;24.02;98166.31;5014494;28;20033;-74
2023/07/01 11:19:29;;;;;;;9.05;2.47;;;;;;;33.99;25.40;98165.06;5013912;28;20029;-73
2023/07/01 11:21:55;;;;;;;3.97;2.13;;;;;;;33.88;25.88;98161.66;4997734;28;20029;-73
2023/07/01 11:24:21;;;;;;;3.40;2.10;;;;;;;33.80;25.80;98153.34;4997478;28;20408;-72
2023/07/01 11:26:47;;;;;;;3.38;2.22;;;;;;;33.62;25.11;98146.66;5031903;28;20146;-74
2023/07/01 12:40:09;;;;;;;4.07;2.38;;;;;;;32.53;25.11;98111.28;6045909;23;20022;31